Montrose, Colorado
Current Conditions -  °F | °C
As of 6:53 PM on Saturday 22 Nov 2014 (Local Time) from KMTJ Reporting Station
Broken Clouds Broken Clouds  
Wind Chill: 36°   Ceiling: 11000
Heat Index: 41°   Visibility: 10mi
Dew Point: 26°   Wind: 7mph
Humidity: 55%   Direction: 300°WNW
Pressure: 29.83"   Gusts: NA
Location:  38.48°N, 107.87°W
Report Text: KMTJ 230153Z AUTO 30006KT 10SM FEW080 SCT100 BKN110 05/M03 A2983 RMK AO2 SLP100 T00501033
Loading
Personal Weather Stations






























Interactive Weather Map New forecast layout! Learn more

10-Day Weather Forecast

Advertisements
Track Severe Weather on mobile